Time;durP1;ratioP1;P1;durP2;ratioP2;P2;SDS_P1;SDS_P2;PMS_P1;PMS_P2;Temp;Humidity;BMP_temperature;BMP_pressure;BME280_temperature;BME280_humidity;BME280_pressure;Samples;Min_cycle;Max_cycle;Signal;HPM_P1;HPM_P2
2024/03/24 08:11:30;;;;;;;4.18;1.00;;;9.80;99.90;;;;;;4080122;29;20574;-95
2024/03/24 08:13:57;;;;;;;2.55;0.40;;;9.60;99.90;;;;;;4054778;29;20185;-94
2024/03/24 08:19:55;;;;;;;5.72;1.02;;;9.70;99.90;;;;;;4079078;29;20179;-94
2024/03/24 08:21:57;;;;;;;3.05;1.05;;;10.90;99.90;;;;;;4037446;29;20209;-94
2024/03/24 08:24:17;;;;;;;4.90;1.27;;;11.60;99.90;;;;;;4069308;29;20196;-94
2024/03/24 08:26:18;;;;;;;7.53;0.93;;;11.30;99.90;;;;;;4084920;29;20176;-95
2024/03/24 08:28:44;;;;;;;5.50;1.10;;;10.70;99.90;;;;;;4053251;29;20748;-95
2024/03/24 08:33:34;;;;;;;4.88;1.88;;;10.50;99.90;;;;;;4064361;29;20191;-95
2024/03/24 08:35:53;;;;;;;;;;;;;;;;;;;;;
2024/03/24 08:38:25;;;;;;;;;;;;;;;;;;;;;
2024/03/24 08:40:49;;;;;;;7.25;1.35;;;11.30;99.90;;;;;;4068256;29;20203;-95
2024/03/24 08:43:23;;;;;;;17.90;5.53;;;12.80;99.90;;;;;;4069326;29;20535;-95
2024/03/24 08:45:36;;;;;;;12.30;4.93;;;13.30;99.90;;;;;;4066584;29;20220;-95
2024/03/24 08:48:03;;;;;;;7.70;1.67;;;13.60;99.90;;;;;;4068800;29;20598;-95
2024/03/24 08:50:16;;;;;;;;;;;;;;;;;;;;;
2024/03/24 08:52:33;;;;;;;73.85;32.47;;;13.30;99.90;;;;;;4085119;29;20172;-95
2024/03/24 08:54:51;;;;;;;47.40;20.20;;;12.90;99.90;;;;;;4068916;29;20753;-95
2024/03/24 08:56:52;;;;;;;2.55;1.30;;;12.70;99.90;;;;;;4068289;29;20176;-94
2024/03/24 08:58:53;;;;;;;8.23;1.23;;;12.40;99.90;;;;;;4068553;29;20180;-95
2024/03/24 09:01:23;;;;;;;9.38;1.77;;;12.00;99.90;;;;;;4052680;29;20195;-94
2024/03/24 09:03:24;;;;;;;4.28;0.77;;;11.70;99.90;;;;;;4050644;29;20197;-96
2024/03/24 09:05:26;;;;;;;6.47;1.25;;;11.00;99.90;;;;;;4052842;29;20259;-93
2024/03/24 09:07:27;;;;;;;5.60;1.90;;;10.50;99.90;;;;;;4084183;29;20188;-94
2024/03/24 09:09:31;;;;;;;8.63;0.93;;;10.30;99.90;;;;;;4052526;29;20184;-94
2024/03/24 09:11:34;;;;;;;6.05;1.65;;;10.30;99.90;;;;;;4068220;29;20184;-93
2024/03/24 09:13:36;;;;;;;3.55;1.45;;;10.60;99.90;;;;;;4083960;29;20178;-92
2024/03/24 09:15:47;;;;;;;7.20;1.60;;;10.40;99.90;;;;;;4068073;29;20188;-96
2024/03/24 09:17:50;;;;;;;6.03;2.47;;;10.40;99.90;;;;;;4052900;29;20176;-95
2024/03/24 09:19:51;;;;;;;3.40;1.13;;;10.40;99.90;;;;;;4084027;29;20195;-94
2024/03/24 09:21:52;;;;;;;2.80;1.27;;;10.30;99.90;;;;;;4052769;29;20644;-94
2024/03/24 09:23:54;;;;;;;2.58;0.80;;;10.10;99.90;;;;;;4052941;29;20640;-93
2024/03/24 09:25:58;;;;;;;4.20;1.05;;;9.90;99.90;;;;;;4052947;29;20181;-94
2024/03/24 09:28:01;;;;;;;5.55;1.08;;;9.70;99.90;;;;;;4052136;29;20544;-95
2024/03/24 09:30:22;;;;;;;9.02;1.00;;;9.70;99.90;;;;;;4084065;29;20199;-95
2024/03/24 09:32:24;;;;;;;8.43;1.10;;;9.70;99.90;;;;;;4052825;29;20583;-93
2024/03/24 09:34:25;;;;;;;5.95;1.10;;;9.90;99.90;;;;;;4068509;29;20219;-96
2024/03/24 09:36:26;;;;;;;18.73;2.47;;;9.90;99.90;;;;;;4068641;29;20263;-93
2024/03/24 09:38:28;;;;;;;3.10;0.68;;;9.70;99.90;;;;;;4053032;29;20202;-94
2024/03/24 09:40:31;;;;;;;8.52;2.03;;;9.80;99.90;;;;;;4052366;29;20600;-94
2024/03/24 09:42:37;;;;;;;4.10;1.50;;;10.00;99.90;;;;;;4052742;29;20656;-93
2024/03/24 09:44:49;;;;;;;4.78;0.98;;;10.00;99.90;;;;;;4071350;29;20219;-93
2024/03/24 09:46:50;;;;;;;7.63;0.85;;;10.20;99.90;;;;;;4071686;29;20176;-94
2024/03/24 09:48:54;;;;;;;3.63;1.20;;;10.60;99.90;;;;;;4052633;29;20360;-93
2024/03/24 09:51:01;;;;;;;3.28;1.00;;;10.70;99.90;;;;;;4052720;29;20197;-95
2024/03/24 09:53:10;;;;;;;4.40;0.90;;;11.00;99.90;;;;;;4068357;29;20183;-93
2024/03/24 09:55:16;;;;;;;8.48;1.05;;;10.80;99.90;;;;;;4068018;29;20623;-93
2024/03/24 09:57:17;;;;;;;4.55;0.70;;;10.80;99.90;;;;;;4084011;29;20211;-94
2024/03/24 09:59:19;;;;;;;7.05;1.17;;;10.90;99.90;;;;;;4067669;29;20267;-94
2024/03/24 10:01:20;;;;;;;4.57;1.17;;;10.70;99.90;;;;;;4083720;29;20232;-95
2024/03/24 10:03:21;;;;;;;2.25;0.60;;;10.60;99.90;;;;;;4052308;29;20184;-93
2024/03/24 10:05:30;;;;;;;8.57;1.65;;;10.30;99.90;;;;;;4052411;29;20607;-94
2024/03/24 10:07:31;;;;;;;6.95;1.30;;;10.10;99.90;;;;;;4052828;29;20666;-93
2024/03/24 10:10:37;;;;;;;1.70;0.90;;;9.70;99.90;;;;;;4052332;29;20181;-95
2024/03/24 10:13:05;;;;;;;0.70;0.40;;;9.20;99.90;;;;;;4081470;29;20215;-96
2024/03/24 10:16:13;;;;;;;;;;;;;;;;;;;;;
2024/03/24 10:19:51;;;;;;;7.32;1.20;;;8.60;99.90;;;;;;4075553;29;20195;-95
2024/03/24 10:26:37;;;;;;;1.77;0.77;;;8.70;99.90;;;;;;4071106;29;20226;-94
2024/03/24 10:35:35;;;;;;;;;;;;;;;;;;;;;
2024/03/24 10:38:27;;;;;;;6.32;1.00;;;10.60;99.90;;;;;;3997237;29;20250;-96
2024/03/24 10:42:45;;;;;;;1.25;0.70;;;10.00;99.90;;;;;;4107973;23;20218;-94
2024/03/24 10:45:32;;;;;;;0.68;0.40;;;9.70;99.90;;;;;;4070396;29;20230;-95
2024/03/24 10:48:44;;;;;;;2.47;0.90;;;9.30;99.90;;;;;;4032717;29;20194;-96
2024/03/24 10:51:05;;;;;;;1.05;0.43;;;9.30;99.90;;;;;;3993761;29;20268;-94
2024/03/24 10:56:03;;;;;;;5.32;1.15;;;9.90;99.90;;;;;;4012176;29;20619;-93
2024/03/24 10:58:30;;;;;;;3.00;1.00;;;10.10;99.90;;;;;;4023046;29;20273;-94
2024/03/24 11:01:07;;;;;;;6.20;0.88;;;10.40;99.90;;;;;;4008095;29;20740;-95
2024/03/24 11:03:38;;;;;;;2.67;0.73;;;10.40;99.90;;;;;;4051821;29;20279;-93
2024/03/24 11:05:58;;;;;;;4.28;1.48;;;10.50;99.90;;;;;;4015746;29;20229;-95
2024/03/24 11:08:15;;;;;;;1.80;0.65;;;10.40;99.90;;;;;;4076161;29;20187;-95
2024/03/24 11:10:36;;;;;;;6.25;1.40;;;10.30;99.90;;;;;;4086399;29;20192;-95
2024/03/24 11:12:38;;;;;;;3.75;0.68;;;10.50;99.90;;;;;;4101649;29;20538;-92
2024/03/24 11:14:59;;;;;;;7.85;0.93;;;10.60;99.90;;;;;;4085759;29;20183;-94
2024/03/24 11:17:03;;;;;;;4.75;1.05;;;10.80;99.90;;;;;;4069804;29;20295;-93
2024/03/24 11:19:15;;;;;;;4.30;0.93;;;11.00;99.90;;;;;;4085710;29;20172;-96
2024/03/24 11:21:48;;;;;;;4.85;0.88;;;11.20;99.90;;;;;;4085389;29;20207;-93
2024/03/24 11:23:52;;;;;;;3.27;0.57;;;11.10;99.90;;;;;;4040512;29;20238;-94
2024/03/24 11:26:01;;;;;;;0.77;0.40;;;11.00;99.90;;;;;;4069386;29;20558;-93
2024/03/24 11:28:02;;;;;;;4.55;0.88;;;10.70;99.90;;;;;;4101750;29;20171;-93
2024/03/24 11:30:06;;;;;;;6.25;1.10;;;10.80;99.90;;;;;;4085655;29;20266;-93
2024/03/24 11:32:17;;;;;;;3.60;0.55;;;11.00;99.90;;;;;;4087022;29;20228;-94
2024/03/24 11:34:27;;;;;;;1.52;0.57;;;11.30;99.90;;;;;;4069736;29;20248;-95
2024/03/24 11:36:32;;;;;;;5.57;1.20;;;11.20;99.90;;;;;;4069813;29;20172;-94
2024/03/24 11:38:37;;;;;;;6.88;0.90;;;11.20;99.90;;;;;;4085326;29;20642;-93
2024/03/24 11:40:40;;;;;;;5.22;1.02;;;10.90;99.90;;;;;;4069632;29;20197;-94
2024/03/24 11:42:41;;;;;;;2.63;0.52;;;10.60;99.90;;;;;;4069786;29;20198;-92
2024/03/24 11:44:43;;;;;;;0.50;0.38;;;10.30;99.90;;;;;;4085500;29;20704;-95
2024/03/24 11:47:03;;;;;;;6.88;1.08;;;10.20;99.90;;;;;;4069794;29;20285;-94
2024/03/24 11:49:04;;;;;;;6.50;1.73;;;10.40;99.90;;;;;;4069693;29;20247;-93
2024/03/24 11:51:06;;;;;;;7.15;1.02;;;10.60;99.90;;;;;;4100227;28;20179;-92
2024/03/24 11:53:10;;;;;;;1.42;0.47;;;11.00;99.90;;;;;;4085475;29;20256;-93
2024/03/24 11:55:13;;;;;;;1.38;0.73;;;11.20;99.90;;;;;;4100949;29;20266;-93
2024/03/24 11:57:14;;;;;;;5.10;0.40;;;11.10;99.90;;;;;;4117191;28;20175;-94
2024/03/24 11:59:15;;;;;;;3.42;0.50;;;11.00;99.90;;;;;;4084904;29;20188;-93
2024/03/24 12:01:17;;;;;;;1.75;0.60;;;11.10;99.90;;;;;;4069442;29;20200;-95
2024/03/24 12:03:19;;;;;;;3.05;0.50;;;11.10;99.90;;;;;;4069461;29;20207;-94
2024/03/24 12:05:22;;;;;;;2.65;0.93;;;11.00;99.90;;;;;;4069445;29;20255;-93
2024/03/24 12:07:23;;;;;;;2.90;0.50;;;11.00;99.90;;;;;;4085219;29;20175;-93
2024/03/24 12:09:24;;;;;;;1.90;0.35;;;10.90;99.90;;;;;;4069467;29;20176;-93
2024/03/24 12:11:25;;;;;;;2.38;0.50;;;10.70;99.90;;;;;;4069437;29;20199;-93
2024/03/24 12:13:26;;;;;;;4.78;0.70;;;10.70;99.90;;;;;;4073771;29;20647;-92
2024/03/24 12:15:27;;;;;;;5.97;1.58;;;11.00;99.90;;;;;;4089800;29;20163;-93
2024/03/24 12:17:33;;;;;;;9.88;1.27;;;11.30;99.90;;;;;;4069362;29;20184;-93
2024/03/24 12:19:37;;;;;;;2.78;0.73;;;11.40;99.90;;;;;;4069631;29;20611;-94
2024/03/24 12:21:49;;;;;;;4.97;0.77;;;11.60;99.90;;;;;;4102518;28;20179;-93
2024/03/24 12:23:54;;;;;;;4.40;0.50;;;11.60;99.90;;;;;;4084977;29;20171;-93
2024/03/24 12:25:57;;;;;;;2.97;0.45;;;11.60;99.90;;;;;;4069471;29;20712;-93
2024/03/24 12:27:59;;;;;;;2.10;0.40;;;11.40;99.90;;;;;;4085178;29;20902;-95
2024/03/24 12:30:01;;;;;;;9.45;1.00;;;11.30;99.90;;;;;;4084930;29;20290;-93
2024/03/24 12:32:02;;;;;;;1.83;0.60;;;11.20;99.90;;;;;;4069175;29;20188;-93
2024/03/24 12:34:06;;;;;;;5.38;1.05;;;11.20;99.90;;;;;;4068999;29;20191;-94
2024/03/24 12:36:07;;;;;;;1.98;0.40;;;11.20;99.90;;;;;;4084857;29;20227;-94
2024/03/24 12:38:08;;;;;;;1.75;0.30;;;11.20;99.90;;;;;;4068985;29;20267;-93
2024/03/24 12:40:24;;;;;;;1.33;0.40;;;11.00;99.90;;;;;;4068803;29;20267;-93
2024/03/24 12:42:25;;;;;;;5.82;0.65;;;10.90;99.90;;;;;;4101068;29;20186;-94
2024/03/24 12:44:26;;;;;;;1.80;0.40;;;11.00;99.90;;;;;;4084581;29;20222;-94
2024/03/24 12:46:31;;;;;;;1.17;0.57;;;11.00;99.90;;;;;;4068746;29;20271;-94
2024/03/24 12:48:32;;;;;;;2.28;0.30;;;10.90;99.90;;;;;;4070003;29;20228;-93
2024/03/24 12:50:34;;;;;;;0.52;0.45;;;10.80;99.90;;;;;;4071310;29;20196;-93
2024/03/24 12:52:38;;;;;;;2.75;0.32;;;10.60;99.90;;;;;;4085101;29;20263;-94
2024/03/24 12:54:43;;;;;;;1.77;0.50;;;10.50;99.90;;;;;;4068941;29;20270;-95
2024/03/24 12:56:45;;;;;;;3.90;0.50;;;10.50;99.90;;;;;;4100799;29;20625;-93
2024/03/24 12:58:47;;;;;;;3.92;1.08;;;10.50;99.90;;;;;;4084987;29;20167;-94
2024/03/24 13:00:50;;;;;;;1.67;0.43;;;10.50;99.90;;;;;;4085040;29;20223;-93
2024/03/24 13:03:01;;;;;;;1.50;0.55;;;10.60;99.90;;;;;;4084815;29;20179;-93
2024/03/24 13:05:01;;;;;;;0.93;0.50;;;10.60;99.90;;;;;;4083998;29;20207;-93
2024/03/24 13:07:04;;;;;;;1.42;0.45;;;10.40;99.90;;;;;;4099995;29;20210;-93
2024/03/24 13:09:08;;;;;;;5.85;0.73;;;10.50;99.90;;;;;;4068417;29;20188;-94
2024/03/24 13:11:13;;;;;;;2.67;0.32;;;10.40;99.90;;;;;;4084043;29;20194;-93
2024/03/24 13:13:14;;;;;;;2.08;0.40;;;10.40;99.90;;;;;;4068481;29;20619;-93
2024/03/24 13:15:16;;;;;;;6.28;0.90;;;10.40;99.90;;;;;;4068747;29;20176;-94
2024/03/24 13:17:21;;;;;;;1.73;0.70;;;10.50;99.90;;;;;;4068511;29;20183;-93
2024/03/24 13:19:30;;;;;;;2.85;0.45;;;10.60;99.90;;;;;;4084288;29;20215;-92
2024/03/24 13:21:44;;;;;;;3.45;0.82;;;10.50;99.90;;;;;;4083944;29;20585;-94
2024/03/24 13:23:48;;;;;;;1.20;0.50;;;10.70;99.90;;;;;;4083923;29;20609;-92
2024/03/24 13:25:56;;;;;;;6.10;0.90;;;10.50;99.90;;;;;;4068295;29;20224;-92
2024/03/24 13:28:02;;;;;;;0.80;0.50;;;10.50;99.90;;;;;;4084273;29;20179;-95
2024/03/24 13:30:04;;;;;;;7.15;0.90;;;10.50;99.90;;;;;;4084042;29;20198;-93
2024/03/24 13:32:05;;;;;;;6.45;1.33;;;10.40;99.90;;;;;;4068248;29;20179;-94
2024/03/24 13:34:07;;;;;;;1.48;0.77;;;10.30;99.90;;;;;;4068064;29;20176;-92
2024/03/24 13:36:21;;;;;;;3.05;0.40;;;10.20;99.90;;;;;;4068511;29;20671;-93
2024/03/24 13:38:29;;;;;;;1.65;0.50;;;10.30;99.90;;;;;;4099641;29;20170;-92
2024/03/24 13:40:54;;;;;;;5.65;1.50;;;10.20;99.90;;;;;;4068418;29;20195;-94
2024/03/24 13:43:25;;;;;;;1.20;0.40;;;10.60;99.90;;;;;;4084123;29;20201;-94
2024/03/24 13:45:39;;;;;;;0.85;0.50;;;10.40;99.90;;;;;;4068304;29;20211;-93
2024/03/24 13:47:42;;;;;;;0.52;0.30;;;10.50;99.90;;;;;;4068516;29;20176;-93
2024/03/24 13:49:43;;;;;;;2.60;0.70;;;10.50;99.90;;;;;;4084198;29;20186;-94
2024/03/24 13:51:46;;;;;;;1.77;0.50;;;10.40;99.90;;;;;;4084137;29;20167;-94
2024/03/24 13:53:48;;;;;;;4.13;0.60;;;10.60;99.90;;;;;;4068228;29;20191;-93
2024/03/24 13:55:49;;;;;;;2.75;0.50;;;10.70;99.90;;;;;;4068152;29;20180;-94
2024/03/24 13:57:50;;;;;;;1.88;0.68;;;10.60;99.90;;;;;;4083967;29;20180;-94
2024/03/24 13:59:51;;;;;;;0.75;0.25;;;10.50;99.90;;;;;;4068146;29;20267;-93
2024/03/24 14:01:54;;;;;;;3.05;0.55;;;10.50;99.90;;;;;;4083987;29;20227;-93
2024/03/24 14:03:55;;;;;;;1.80;0.55;;;10.60;99.90;;;;;;4083795;29;20175;-93
2024/03/24 14:05:58;;;;;;;3.53;0.93;;;10.60;99.90;;;;;;4083699;29;20187;-92
2024/03/24 14:07:58;;;;;;;0.30;0.30;;;10.70;99.90;;;;;;4083828;29;20179;-93
2024/03/24 14:10:04;;;;;;;6.20;0.70;;;10.60;99.90;;;;;;4068044;29;20360;-94
2024/03/24 14:12:08;;;;;;;6.38;0.80;;;10.60;99.90;;;;;;4068239;29;20236;-92
2024/03/24 14:14:12;;;;;;;2.17;0.95;;;10.60;99.90;;;;;;4069004;29;20184;-93
2024/03/24 14:16:32;;;;;;;0.75;0.40;;;10.50;99.90;;;;;;4087021;29;20214;-93
2024/03/24 14:18:51;;;;;;;3.42;0.68;;;10.40;99.90;;;;;;4086870;29;20183;-92
2024/03/24 14:21:05;;;;;;;3.15;0.82;;;10.70;99.90;;;;;;4086714;29;20785;-93
2024/03/24 14:23:22;;;;;;;1.35;0.68;;;10.60;99.90;;;;;;4070997;29;20231;-94
2024/03/24 14:25:26;;;;;;;2.45;0.98;;;10.80;99.90;;;;;;4070838;29;20212;-95
2024/03/24 14:27:27;;;;;;;6.03;1.45;;;10.80;99.90;;;;;;4070995;29;20183;-92
2024/03/24 14:29:28;;;;;;;1.88;0.60;;;10.90;99.90;;;;;;4086519;29;20176;-93
2024/03/24 14:31:29;;;;;;;2.83;0.68;;;11.00;99.90;;;;;;4070799;29;20226;-93
2024/03/24 14:33:30;;;;;;;1.95;0.88;;;10.80;99.90;;;;;;4102581;29;20167;-93
2024/03/24 14:36:00;;;;;;;3.90;0.95;;;10.80;99.90;;;;;;4070589;29;20181;-92
2024/03/24 14:38:23;;;;;;;12.48;0.90;;;11.10;99.90;;;;;;4102379;29;20163;-93
2024/03/24 14:40:49;;;;;;;2.28;0.82;;;11.00;99.90;;;;;;4071323;29;20705;-92
2024/03/24 14:42:59;;;;;;;3.33;0.57;;;11.00;99.90;;;;;;4075771;29;20211;-92
2024/03/24 14:45:40;;;;;;;1.02;0.55;;;10.80;99.90;;;;;;4070454;29;20219;-93
2024/03/24 14:48:14;;;;;;;5.97;0.63;;;10.80;99.90;;;;;;4086419;29;20262;-92
2024/03/24 14:50:15;;;;;;;2.35;0.75;;;11.00;99.90;;;;;;4070567;29;20192;-92
2024/03/24 14:52:16;;;;;;;2.10;0.70;;;11.20;99.90;;;;;;4086323;29;20660;-92
2024/03/24 14:54:19;;;;;;;4.05;1.23;;;11.20;99.90;;;;;;4070599;29;20642;-94
2024/03/24 14:56:20;;;;;;;2.55;0.98;;;11.10;99.90;;;;;;4070726;29;20175;-93
2024/03/24 14:58:21;;;;;;;3.55;0.35;;;10.90;99.90;;;;;;4086273;29;20214;-93
2024/03/24 15:00:23;;;;;;;2.63;0.82;;;10.80;99.90;;;;;;4070370;29;20198;-93
2024/03/24 15:02:24;;;;;;;7.13;1.05;;;10.90;99.90;;;;;;4070448;29;20184;-92
2024/03/24 15:04:25;;;;;;;4.45;0.57;;;10.90;99.90;;;;;;4070492;29;20396;-94
2024/03/24 15:06:26;;;;;;;3.60;1.30;;;10.80;99.90;;;;;;4070398;29;20184;-93
2024/03/24 15:08:27;;;;;;;4.80;0.88;;;11.00;99.90;;;;;;4086135;29;20207;-92
2024/03/24 15:10:28;;;;;;;1.75;0.30;;;10.80;99.90;;;;;;4069933;29;20199;-93
2024/03/24 15:12:31;;;;;;;2.28;0.60;;;10.80;99.90;;;;;;4070179;29;20240;-92
2024/03/24 15:14:32;;;;;;;2.30;0.82;;;10.80;99.90;;;;;;4070115;29;20184;-94
2024/03/24 15:16:33;;;;;;;0.47;0.40;;;10.80;99.90;;;;;;4070025;29;20180;-94
2024/03/24 15:18:37;;;;;;;1.25;0.80;;;10.60;99.90;;;;;;4085689;29;20179;-95
2024/03/24 15:20:37;;;;;;;4.00;0.57;;;10.50;99.90;;;;;;4085768;29;20200;-93
2024/03/24 15:22:38;;;;;;;3.85;0.90;;;10.40;99.90;;;;;;4070054;29;20181;-93
2024/03/24 15:24:39;;;;;;;10.40;0.70;;;10.50;99.90;;;;;;4070104;29;20207;-93
2024/03/24 15:26:40;;;;;;;0.77;0.45;;;10.50;99.90;;;;;;4100437;28;20175;-92
2024/03/24 15:28:41;;;;;;;1.42;0.60;;;10.50;99.90;;;;;;4101473;29;20175;-92
2024/03/24 15:30:42;;;;;;;1.73;0.80;;;10.40;99.90;;;;;;4085655;29;20210;-93
2024/03/24 15:32:43;;;;;;;2.28;0.50;;;10.50;99.90;;;;;;4069953;29;20172;-93
2024/03/24 15:34:44;;;;;;;3.25;1.25;;;10.60;99.90;;;;;;4101500;29;20269;-93
2024/03/24 15:36:45;;;;;;;2.08;0.75;;;10.70;99.90;;;;;;4085542;29;20180;-94
2024/03/24 15:38:47;;;;;;;5.13;1.13;;;10.90;99.90;;;;;;4101296;29;20229;-93
2024/03/24 15:40:49;;;;;;;7.45;1.50;;;10.80;99.90;;;;;;4085537;29;20192;-94
2024/03/24 15:42:53;;;;;;;3.13;0.57;;;10.60;99.90;;;;;;4069685;29;20191;-92
2024/03/24 15:44:53;;;;;;;3.15;0.43;;;10.50;99.90;;;;;;4101092;29;20214;-94
2024/03/24 15:46:55;;;;;;;2.85;0.60;;;10.60;99.90;;;;;;4069825;29;20635;-93
2024/03/24 15:48:55;;;;;;;2.85;0.50;;;10.70;99.90;;;;;;4085469;29;20187;-92
2024/03/24 15:50:56;;;;;;;1.08;0.47;;;10.70;99.90;;;;;;4069558;29;20252;-93
2024/03/24 15:52:57;;;;;;;2.25;1.05;;;10.60;99.90;;;;;;4101138;29;20178;-94
2024/03/24 15:54:59;;;;;;;2.38;0.60;;;10.60;99.90;;;;;;4069513;29;20173;-94
2024/03/24 15:57:18;;;;;;;5.18;1.92;;;10.30;99.90;;;;;;4101096;29;20198;-92
2024/03/24 15:59:22;;;;;;;6.90;2.35;;;10.00;99.90;;;;;;4085237;29;20209;-93
2024/03/24 16:01:36;;;;;;;1.65;0.40;;;10.10;99.90;;;;;;4069422;29;20339;-93
2024/03/24 16:03:37;;;;;;;9.73;1.80;;;10.10;99.90;;;;;;4085413;29;20183;-94
2024/03/24 16:05:38;;;;;;;2.83;0.70;;;10.20;99.90;;;;;;4069369;29;20204;-94
2024/03/24 16:07:43;;;;;;;2.45;0.75;;;10.30;99.90;;;;;;4069388;29;20673;-93
2024/03/24 16:10:12;;;;;;;3.10;0.73;;;10.50;99.90;;;;;;4085035;29;20175;-92
2024/03/24 16:12:25;;;;;;;2.05;0.50;;;10.50;99.90;;;;;;4031089;29;20185;-94
2024/03/24 16:14:36;;;;;;;3.10;0.25;;;10.80;99.90;;;;;;4085012;29;20179;-92
2024/03/24 16:16:38;;;;;;;6.68;0.60;;;10.40;99.90;;;;;;4084821;29;20190;-94
2024/03/24 16:18:39;;;;;;;2.47;0.50;;;10.20;99.90;;;;;;4069141;29;20219;-95
2024/03/24 16:20:40;;;;;;;1.40;0.90;;;10.10;99.90;;;;;;4069380;29;20204;-93
2024/03/24 16:22:46;;;;;;;2.25;0.95;;;10.20;99.90;;;;;;4069311;29;20205;-93
2024/03/24 16:24:48;;;;;;;3.70;1.08;;;10.10;99.90;;;;;;4069150;29;20218;-93
2024/03/24 16:26:49;;;;;;;2.90;0.88;;;10.20;99.90;;;;;;4069070;29;20172;-92
2024/03/24 16:28:53;;;;;;;3.38;0.50;;;9.80;99.90;;;;;;4069190;29;20622;-93
2024/03/24 16:30:54;;;;;;;3.45;0.80;;;9.80;99.90;;;;;;4068979;29;20283;-93
2024/03/24 16:32:56;;;;;;;3.72;0.73;;;9.70;99.90;;;;;;4085110;29;20188;-92
2024/03/24 16:34:57;;;;;;;3.47;0.63;;;9.80;99.90;;;;;;4069137;29;20172;-93
2024/03/24 16:36:58;;;;;;;1.15;0.77;;;9.80;99.90;;;;;;4084327;29;20274;-93
2024/03/24 16:38:59;;;;;;;7.50;0.85;;;9.80;99.90;;;;;;4068879;29;20207;-94
2024/03/24 16:41:01;;;;;;;2.30;0.45;;;9.50;99.90;;;;;;4100312;29;20213;-93
2024/03/24 16:43:04;;;;;;;1.83;0.80;;;9.40;99.90;;;;;;4084456;29;20668;-93
2024/03/24 16:45:09;;;;;;;3.78;0.50;;;9.20;99.90;;;;;;4084541;29;20215;-94
2024/03/24 16:47:39;;;;;;;5.35;0.68;;;9.10;99.90;;;;;;4084787;29;20167;-96
2024/03/24 16:49:52;;;;;;;1.80;0.50;;;9.20;99.90;;;;;;4069161;29;20184;-94
2024/03/24 16:52:16;;;;;;;5.60;1.25;;;8.90;99.90;;;;;;4068171;29;20188;-95
2024/03/24 16:55:24;;;;;;;;;;;;;;;;;;;;;
